Time;durP1;ratioP1;P1;durP2;ratioP2;P2;SDS_P1;SDS_P2;PMS_P1;PMS_P2;Temp;Humidity;BMP_temperature;BMP_pressure;BME280_temperature;BME280_humidity;BME280_pressure;Samples;Min_cycle;Max_cycle;Signal;HPM_P1;HPM_P2
2022/07/20 04:26:19;;;;;;;6.40;5.90;;;;;;;;;;4965655;28;20459;-94
2022/07/20 04:29:04;;;;;;;6.90;6.30;;;;;;;;;;4975940;28;20444;-94
2022/07/20 04:31:30;;;;;;;7.47;6.70;;;;;;;;;;4998118;28;20424;-91
2022/07/20 04:34:10;;;;;;;8.60;7.47;;;;;;;;;;5002425;28;20433;-93
2022/07/20 04:36:37;;;;;;;8.73;7.83;;;;;;;;;;4979201;28;20437;-94
2022/07/20 04:39:08;;;;;;;9.73;8.10;;;;;;;;;;5001849;28;20441;-96
2022/07/20 04:41:34;;;;;;;8.70;7.87;;;;;;;;;;4984362;28;20433;-94
2022/07/20 04:44:02;;;;;;;8.57;7.77;;;;;;;;;;4998488;28;20528;-95
2022/07/20 04:46:37;;;;;;;9.33;8.23;;;;;;;;;;4978680;28;20468;-96
2022/07/20 04:49:12;;;;;;;8.63;7.93;;;;;;;;;;4998880;28;20492;-96
2022/07/20 04:51:53;;;;;;;10.30;8.30;;;;;;;;;;4988627;28;20451;-94
2022/07/20 04:54:28;;;;;;;9.23;8.33;;;;;;;;;;4979393;28;20444;-91
2022/07/20 04:56:57;;;;;;;8.83;8.03;;;;;;;;;;4962533;28;20472;-91
2022/07/20 04:59:23;;;;;;;9.07;8.10;;;;;;;;;;4981179;28;20907;-89
2022/07/20 05:01:49;;;;;;;8.83;7.93;;;;;;;;;;4969621;28;20578;-90
2022/07/20 05:04:23;;;;;;;9.40;7.60;;;;;;;;;;4977096;28;20182;-90
2022/07/20 05:06:48;;;;;;;8.87;8.07;;;;;;;;;;4962626;28;20575;-89
2022/07/20 05:09:17;;;;;;;7.90;7.30;;;;;;;;;;4958838;28;20816;-90
2022/07/20 05:11:46;;;;;;;10.40;7.53;;;;;;;;;;4962470;28;20755;-90
2022/07/20 05:14:12;;;;;;;9.30;8.10;;;;;;;;;;4972030;28;20503;-89
2022/07/20 05:16:38;;;;;;;9.27;8.27;;;;;;;;;;4971579;28;20582;-89
2022/07/20 05:19:04;;;;;;;11.17;9.10;;;;;;;;;;4967094;28;20442;-90
2022/07/20 05:21:30;;;;;;;9.20;7.87;;;;;;;;;;4969113;28;20932;-89
2022/07/20 05:23:56;;;;;;;12.97;8.23;;;;;;;;;;4971585;28;21136;-89
2022/07/20 05:26:22;;;;;;;8.70;7.90;;;;;;;;;;4968945;28;20528;-90
2022/07/20 05:28:48;;;;;;;9.40;7.90;;;;;;;;;;4986633;28;21933;-89
2022/07/20 05:31:14;;;;;;;9.50;7.60;;;;;;;;;;4976371;28;20309;-92
2022/07/20 05:33:41;;;;;;;8.90;8.03;;;;;;;;;;4967972;28;20263;-90
2022/07/20 05:36:07;;;;;;;11.90;9.03;;;;;;;;;;4966540;28;20794;-90
2022/07/20 05:38:33;;;;;;;9.20;8.40;;;;;;;;;;4969392;28;20448;-90
2022/07/20 05:41:01;;;;;;;9.03;8.17;;;;;;;;;;4969415;28;20445;-90
2022/07/20 05:43:27;;;;;;;9.47;7.80;;;;;;;;;;4987240;28;20448;-89
2022/07/20 05:45:53;;;;;;;9.00;8.20;;;;;;;;;;4972264;28;20450;-90
2022/07/20 05:48:20;;;;;;;9.10;8.20;;;;;;;;;;4966968;28;20780;-89
2022/07/20 05:50:46;;;;;;;9.27;8.10;;;;;;;;;;4970065;28;20439;-91
2022/07/20 05:53:13;;;;;;;10.00;8.30;;;;;;;;;;4973102;28;20449;-90
2022/07/20 05:55:40;;;;;;;9.90;9.00;;;;;;;;;;4963790;28;20520;-89
2022/07/20 05:58:06;;;;;;;9.93;8.93;;;;;;;;;;4986167;28;20499;-90
2022/07/20 06:00:36;;;;;;;8.40;7.70;;;;;;;;;;4989410;28;20483;-90
2022/07/20 06:03:03;;;;;;;9.70;8.50;;;;;;;;;;5001882;28;20453;-90
2022/07/20 06:05:28;;;;;;;11.47;8.20;;;;;;;;;;4983866;28;20938;-90
2022/07/20 06:07:55;;;;;;;10.30;9.30;;;;;;;;;;4970995;28;20543;-91
2022/07/20 06:10:21;;;;;;;11.60;8.23;;;;;;;;;;4986884;28;20723;-90
2022/07/20 06:12:47;;;;;;;11.07;9.10;;;;;;;;;;4966627;28;20824;-89
2022/07/20 06:15:16;;;;;;;13.20;8.77;;;;;;;;;;4970442;28;20437;-90
2022/07/20 06:17:42;;;;;;;9.83;8.83;;;;;;;;;;4991538;28;20187;-90
2022/07/20 06:20:10;;;;;;;8.83;7.93;;;;;;;;;;4983897;28;20579;-89
2022/07/20 06:22:37;;;;;;;9.07;8.27;;;;;;;;;;4976501;28;20512;-90
2022/07/20 06:25:04;;;;;;;9.23;8.43;;;;;;;;;;4984529;28;20463;-89
2022/07/20 06:27:30;;;;;;;8.93;8.23;;;;;;;;;;4969272;28;21016;-89
2022/07/20 06:29:56;;;;;;;9.60;8.60;;;;;;;;;;4975304;28;20430;-90
2022/07/20 06:32:22;;;;;;;10.90;9.10;;;;;;;;;;4982089;28;20896;-90
2022/07/20 06:34:48;;;;;;;9.80;8.77;;;;;;;;;;4972880;28;20705;-90
2022/07/20 06:37:14;;;;;;;9.03;8.23;;;;;;;;;;4970458;28;20629;-88
2022/07/20 06:39:39;;;;;;;9.37;8.57;;;;;;;;;;4966672;28;20193;-89
2022/07/20 06:42:08;;;;;;;10.37;9.43;;;;;;;;;;4964544;28;21036;-89
2022/07/20 06:44:34;;;;;;;10.17;9.30;;;;;;;;;;4967595;28;20214;-89
2022/07/20 06:47:00;;;;;;;9.50;8.50;;;;;;;;;;4971391;28;20539;-89
2022/07/20 06:49:26;;;;;;;9.77;7.80;;;;;;;;;;4974619;28;20777;-90
2022/07/20 06:51:52;;;;;;;9.50;8.53;;;;;;;;;;4980733;28;20189;-90
2022/07/20 06:54:18;;;;;;;9.80;8.57;;;;;;;;;;4977659;28;20440;-90
2022/07/20 06:56:47;;;;;;;12.63;8.40;;;;;;;;;;4973796;28;20799;-90
2022/07/20 06:59:13;;;;;;;8.77;7.97;;;;;;;;;;4970274;28;20947;-90
2022/07/20 07:01:39;;;;;;;8.87;8.07;;;;;;;;;;4973378;28;20447;-90
2022/07/20 07:04:05;;;;;;;8.90;8.00;;;;;;;;;;4988978;28;20188;-89
2022/07/20 07:06:32;;;;;;;10.87;8.50;;;;;;;;;;4969449;28;20445;-91
2022/07/20 07:08:58;;;;;;;8.73;7.90;;;;;;;;;;4970310;28;20445;-89
2022/07/20 07:11:25;;;;;;;8.13;7.33;;;;;;;;;;4972164;28;20833;-91
2022/07/20 07:13:51;;;;;;;8.37;7.57;;;;;;;;;;4971867;28;20468;-91
2022/07/20 07:16:17;;;;;;;7.90;7.20;;;;;;;;;;4968323;28;21044;-92
2022/07/20 07:18:43;;;;;;;8.93;7.70;;;;;;;;;;4982542;28;20436;-90
2022/07/20 07:21:09;;;;;;;8.43;7.43;;;;;;;;;;4973409;28;20507;-89
2022/07/20 07:23:35;;;;;;;7.90;7.10;;;;;;;;;;4991771;28;20686;-89
2022/07/20 07:26:01;;;;;;;9.07;8.10;;;;;;;;;;4966894;28;20197;-91
2022/07/20 07:28:31;;;;;;;6.60;6.10;;;;;;;;;;4967040;28;20492;-91
2022/07/20 07:30:57;;;;;;;7.77;7.07;;;;;;;;;;4982644;28;20520;-91
2022/07/20 07:33:26;;;;;;;7.77;7.00;;;;;;;;;;4961014;28;20499;-92
2022/07/20 07:35:52;;;;;;;7.07;6.47;;;;;;;;;;4997425;28;20455;-91
2022/07/20 07:38:18;;;;;;;7.70;7.00;;;;;;;;;;4976012;28;20433;-91
2022/07/20 07:40:44;;;;;;;6.93;6.27;;;;;;;;;;4984693;28;21183;-92
2022/07/20 07:43:10;;;;;;;7.63;6.90;;;;;;;;;;4964540;28;20468;-89
2022/07/20 07:45:36;;;;;;;20.80;19.17;;;;;;;;;;4981460;28;20193;-92
2022/07/20 07:48:02;;;;;;;9.87;8.77;;;;;;;;;;4974195;28;20209;-93
2022/07/20 07:50:28;;;;;;;6.93;6.30;;;;;;;;;;5012202;28;21655;-93
2022/07/20 07:52:54;;;;;;;7.90;6.70;;;;;;;;;;4982304;28;20201;-91
2022/07/20 07:55:20;;;;;;;7.80;7.10;;;;;;;;;;4962901;28;20288;-91
2022/07/20 07:57:46;;;;;;;7.10;6.40;;;;;;;;;;4966015;28;20232;-91
2022/07/20 08:00:12;;;;;;;5.83;5.43;;;;;;;;;;4976225;28;20939;-91
2022/07/20 08:02:38;;;;;;;7.63;6.30;;;;;;;;;;4966425;28;20218;-91
2022/07/20 08:05:07;;;;;;;7.87;6.53;;;;;;;;;;4977404;28;20468;-91
2022/07/20 08:07:33;;;;;;;6.80;6.27;;;;;;;;;;4983930;28;20547;-90
2022/07/20 08:10:00;;;;;;;9.77;6.00;;;;;;;;;;4984690;28;20944;-89
2022/07/20 08:12:26;;;;;;;7.57;6.53;;;;;;;;;;4984444;28;20441;-88
2022/07/20 08:14:52;;;;;;;8.30;6.60;;;;;;;;;;4981183;28;20440;-90
2022/07/20 08:17:19;;;;;;;7.73;6.60;;;;;;;;;;4992316;28;21090;-90
2022/07/20 08:19:45;;;;;;;8.90;7.17;;;;;;;;;;4982254;28;20492;-90
2022/07/20 08:22:12;;;;;;;7.43;6.83;;;;;;;;;;4980196;28;20441;-90
2022/07/20 08:24:37;;;;;;;6.87;6.27;;;;;;;;;;4969531;28;24957;-90
2022/07/20 08:27:03;;;;;;;7.73;7.10;;;;;;;;;;4977667;28;20492;-90
2022/07/20 08:29:31;;;;;;;7.60;6.90;;;;;;;;;;4960417;28;20285;-89
2022/07/20 08:31:57;;;;;;;8.27;6.53;;;;;;;;;;4954126;28;20194;-89
2022/07/20 08:34:23;;;;;;;7.20;6.00;;;;;;;;;;4971949;28;20444;-89
2022/07/20 08:36:49;;;;;;;7.00;6.40;;;;;;;;;;4995711;28;20194;-91
2022/07/20 08:39:15;;;;;;;7.57;6.87;;;;;;;;;;4964933;28;20301;-90
2022/07/20 08:41:41;;;;;;;7.77;7.17;;;;;;;;;;4985791;28;21088;-91
2022/07/20 08:44:07;;;;;;;7.20;6.60;;;;;;;;;;4970029;28;20537;-88
2022/07/20 08:46:37;;;;;;;7.27;6.17;;;;;;;;;;4963767;28;21610;-89
2022/07/20 08:49:03;;;;;;;9.80;6.37;;;;;;;;;;4969987;28;20440;-89
2022/07/20 08:51:29;;;;;;;7.67;7.00;;;;;;;;;;4971541;28;20807;-90
2022/07/20 08:53:56;;;;;;;7.60;7.03;;;;;;;;;;4981871;28;20448;-90
2022/07/20 08:56:25;;;;;;;7.23;6.70;;;;;;;;;;4970844;28;20528;-92
2022/07/20 08:58:51;;;;;;;6.90;6.17;;;;;;;;;;4971774;28;21229;-90
2022/07/20 09:01:18;;;;;;;7.30;6.50;;;;;;;;;;4962836;28;20445;-90
2022/07/20 09:03:45;;;;;;;7.93;7.10;;;;;;;;;;4967690;28;20823;-91
2022/07/20 09:06:11;;;;;;;7.00;6.50;;;;;;;;;;4980889;28;20444;-90
2022/07/20 09:08:57;;;;;;;7.70;7.10;;;;;;;;;;4965714;28;20576;-89
2022/07/20 09:11:24;;;;;;;8.40;7.60;;;;;;;;;;4966202;28;20445;-90
2022/07/20 09:13:53;;;;;;;7.03;6.33;;;;;;;;;;4966361;28;20838;-91
2022/07/20 09:16:32;;;;;;;7.73;7.03;;;;;;;;;;4968171;28;20449;-91
2022/07/20 09:18:58;;;;;;;7.83;7.13;;;;;;;;;;4987162;28;24099;-90
2022/07/20 09:21:32;;;;;;;6.83;6.30;;;;;;;;;;4965709;28;20498;-91
2022/07/20 09:24:03;;;;;;;7.67;7.07;;;;;;;;;;4967367;28;20233;-90
2022/07/20 09:26:29;;;;;;;7.70;7.10;;;;;;;;;;4962586;28;20563;-90
2022/07/20 09:28:56;;;;;;;7.80;6.67;;;;;;;;;;4980192;28;20544;-91
2022/07/20 09:31:25;;;;;;;7.47;6.83;;;;;;;;;;4966090;28;20792;-90
2022/07/20 09:34:12;;;;;;;7.13;6.63;;;;;;;;;;4965626;28;20449;-91
2022/07/20 09:36:44;;;;;;;7.10;6.40;;;;;;;;;;4966820;28;20511;-91
2022/07/20 09:39:11;;;;;;;7.50;6.90;;;;;;;;;;4976879;28;20923;-90
2022/07/20 09:42:09;;;;;;;7.53;6.83;;;;;;;;;;4961735;28;20440;-90
2022/07/20 09:44:35;;;;;;;6.53;6.03;;;;;;;;;;4966265;28;20510;-89
2022/07/20 09:47:13;;;;;;;6.80;6.30;;;;;;;;;;4962142;28;20592;-90
2022/07/20 09:49:40;;;;;;;7.33;6.63;;;;;;;;;;4961236;28;20438;-94
2022/07/20 09:52:08;;;;;;;6.90;6.40;;;;;;;;;;4966062;28;21562;-91
2022/07/20 09:54:34;;;;;;;7.30;6.00;;;;;;;;;;4998274;28;20432;-90
2022/07/20 09:57:01;;;;;;;6.50;6.10;;;;;;;;;;4958776;28;20452;-90
2022/07/20 09:59:27;;;;;;;7.50;6.90;;;;;;;;;;4967597;28;20424;-90
2022/07/20 10:01:53;;;;;;;6.97;6.47;;;;;;;;;;4968067;28;20527;-91
2022/07/20 10:04:21;;;;;;;7.73;7.03;;;;;;;;;;4963148;28;20433;-91
2022/07/20 10:06:48;;;;;;;7.20;6.53;;;;;;;;;;4966529;28;20442;-92
2022/07/20 10:09:16;;;;;;;7.73;7.13;;;;;;;;;;4958602;28;21311;-92
2022/07/20 10:11:43;;;;;;;9.30;7.27;;;;;;;;;;4965547;28;20471;-92
2022/07/20 10:14:09;;;;;;;7.23;6.73;;;;;;;;;;4969175;28;20428;-91
2022/07/20 10:16:35;;;;;;;8.33;6.83;;;;;;;;;;4987188;28;20519;-91
2022/07/20 10:19:01;;;;;;;7.67;6.97;;;;;;;;;;4996771;28;20521;-92
2022/07/20 10:21:41;;;;;;;8.53;7.80;;;;;;;;;;4990914;28;20224;-93
2022/07/20 10:24:14;;;;;;;8.20;7.50;;;;;;;;;;5002646;28;20444;-94
2022/07/20 10:26:40;;;;;;;8.23;7.50;;;;;;;;;;4969565;28;20441;-96
2022/07/20 10:29:09;;;;;;;8.40;7.70;;;;;;;;;;4973865;28;20451;-94
2022/07/20 14:40:30;;;;;;;25.10;23.10;;;29.00;99.90;;;;;;4963177;28;20488;-96
2022/07/20 14:42:56;;;;;;;22.83;20.73;;;28.70;99.90;;;;;;4967089;28;20502;-95
2022/07/20 14:45:22;;;;;;;23.57;21.70;;;28.80;99.90;;;;;;4969831;28;20476;-94
2022/07/20 14:47:48;;;;;;;23.83;21.60;;;28.90;99.90;;;;;;4965418;28;20260;-91
2022/07/20 14:50:13;;;;;;;23.63;21.80;;;29.00;99.90;;;;;;4962289;28;20451;-93
2022/07/20 14:52:39;;;;;;;24.63;22.53;;;29.00;99.90;;;;;;4966631;28;20190;-92
2022/07/20 14:55:06;;;;;;;22.77;20.70;;;29.10;99.90;;;;;;4962526;28;20610;-93
2022/07/20 14:57:31;;;;;;;24.50;22.60;;;29.40;99.90;;;;;;4966835;28;20459;-94
2022/07/20 14:59:57;;;;;;;23.70;21.50;;;29.90;99.90;;;;;;4964567;28;21977;-94
2022/07/20 15:02:30;;;;;;;22.80;20.90;;;30.50;99.90;;;;;;4966026;28;20329;-94
2022/07/20 15:04:57;;;;;;;21.07;19.27;;;31.60;99.90;;;;;;4974106;28;20637;-93
2022/07/20 15:07:22;;;;;;;23.00;20.87;;;33.00;99.90;;;;;;4959760;28;20504;-95
2022/07/20 15:09:48;;;;;;;19.70;18.07;;;;;;;;;;4963577;28;20539;-93
2022/07/20 15:12:14;;;;;;;18.83;17.13;;;;;;;;;;4957786;28;20387;-94
2022/07/20 15:14:40;;;;;;;19.83;18.13;;;;;;;;;;4993919;28;20196;-94
2022/07/20 15:17:13;;;;;;;19.97;18.40;;;;;;;;;;4965413;28;20557;-94
2022/07/20 15:19:42;;;;;;;21.90;19.93;;;;;;;;;;4979253;28;20594;-94
2022/07/20 15:22:11;;;;;;;20.30;18.87;;;;;;;;;;4965726;28;20309;-94
2022/07/20 15:24:37;;;;;;;19.77;18.27;;;;;;;;;;4964248;28;20444;-95
2022/07/20 15:27:05;;;;;;;20.33;18.73;;;;;;;;;;4966809;28;20451;-95
2022/07/20 15:29:31;;;;;;;19.60;18.00;;;;;;;;;;4981865;28;20843;-95
2022/07/20 15:31:57;;;;;;;19.67;17.67;;;;;;;;;;4969969;28;21017;-94
2022/07/20 15:34:23;;;;;;;19.53;18.13;;;;;;;;;;4972492;28;20551;-94
2022/07/20 15:36:50;;;;;;;19.73;18.30;;;;;;;;;;4980792;28;20181;-96
2022/07/20 15:39:18;;;;;;;19.30;17.80;;;;;;;;;;4983753;28;20199;-96
2022/07/20 15:41:57;;;;;;;19.17;17.40;;;;;;;;;;4975155;28;20196;-96
2022/07/20 15:44:49;;;;;;;19.70;18.10;;;;;;;;;;4985289;28;20218;-96
2022/07/20 15:47:15;;;;;;;18.87;17.50;;;;;;;;;;5000238;28;20672;-96
2022/07/20 15:49:42;;;;;;;20.00;18.30;;;;;;;;;;4960939;28;20193;-96
2022/07/20 15:52:08;;;;;;;24.23;21.87;;;;;;;;;;4975890;28;20177;-96
2022/07/20 15:54:37;;;;;;;19.43;17.93;;;;;;;;;;4983684;28;20207;-96
2022/07/20 15:57:19;;;;;;;22.73;20.87;;;;;;;;;;4995492;28;20196;-96
2022/07/20 15:59:47;;;;;;;20.77;19.00;;;;;;;;;;4982614;28;20196;-96
2022/07/20 16:02:13;;;;;;;19.52;17.77;;;;;;;;;;5005030;28;20583;-96
2022/07/20 16:04:41;;;;;;;18.92;17.35;;;;;;;;;;5009508;28;20185;-96
2022/07/20 16:07:17;;;;;;;20.65;19.00;;;;;;;;;;5007884;28;20209;-96
2022/07/20 16:09:49;;;;;;;20.00;18.27;;;;;;;;;;5013874;28;20204;-96
2022/07/20 16:12:28;;;;;;;22.07;20.27;;;;;;;;;;5362199;23;20222;-95
2022/07/20 16:14:57;;;;;;;20.00;18.40;;;;;;;;;;4978892;28;20193;-96
2022/07/20 16:17:27;;;;;;;20.23;18.80;;;;;;;;;;4958147;28;20458;-96
2022/07/20 16:19:54;;;;;;;21.27;19.53;;;;;;;;;;4976377;28;20495;-96
2022/07/20 16:22:31;;;;;;;19.80;18.10;;;;;;;;;;4955162;28;20470;-96
2022/07/20 16:25:26;;;;;;;21.03;19.00;;;;;;;;;;4949778;28;20546;-96
2022/07/20 16:27:54;;;;;;;21.27;19.47;;;31.30;98.00;;;;;;4961463;28;20530;-96
2022/07/20 16:30:21;;;;;;;20.50;18.60;;;31.40;98.70;;;;;;4941320;29;20459;-96
2022/07/20 16:32:51;;;;;;;19.80;18.40;;;31.70;98.60;;;;;;4959319;28;20531;-96
2022/07/20 16:35:19;;;;;;;19.50;17.60;;;31.50;99.20;;;;;;4969862;29;20453;-96
2022/07/20 16:37:48;;;;;;;19.33;17.50;;;31.70;98.60;;;;;;4974183;28;20457;-96
2022/07/20 16:43:00;;;;;;;18.63;17.13;;;;;;;;;;5755423;23;21031;-96
2022/07/20 17:03:53;;;;;;;24.87;22.73;;;;;;;;;;4927452;28;20490;-93
2022/07/20 17:06:20;;;;;;;22.73;20.90;;;;;;;;;;4938416;28;20796;-92
2022/07/20 17:08:46;;;;;;;27.10;24.77;;;;;;;;;;4920487;28;20526;-94
2022/07/20 17:11:13;;;;;;;28.40;25.63;;;27.90;99.90;;;;;;4921768;28;20445;-92
2022/07/20 17:13:40;;;;;;;28.63;26.20;;;;;;;;;;4928536;28;20868;-91
2022/07/20 17:16:06;;;;;;;27.83;25.53;;;27.50;99.90;;;;;;4925463;28;20557;-91
2022/07/20 17:18:35;;;;;;;29.17;26.10;;;27.40;99.90;;;;;;4923365;28;20451;-90
2022/07/20 17:21:02;;;;;;;29.10;26.47;;;;;;;;;;4924228;28;20454;-91
2022/07/20 17:23:29;;;;;;;25.00;22.80;;;;;;;;;;4931035;28;20447;-92
2022/07/20 17:25:55;;;;;;;28.03;25.43;;;26.90;99.90;;;;;;4925165;28;20469;-91
2022/07/20 17:28:23;;;;;;;30.50;27.90;;;;;;;;;;4924207;28;20492;-92
2022/07/20 17:30:49;;;;;;;27.37;25.03;;;;;;;;;;4937740;28;20509;-92
2022/07/20 17:33:16;;;;;;;27.33;25.03;;;;;;;;;;4921400;28;20448;-93
2022/07/20 17:35:46;;;;;;;27.07;24.83;;;;;;;;;;4923843;28;20490;-92
2022/07/20 17:38:12;;;;;;;27.83;25.60;;;;;;;;;;4921331;28;20442;-93
2022/07/20 17:40:38;;;;;;;28.27;25.77;;;;;;;;;;4925062;28;20534;-92
2022/07/20 17:43:09;;;;;;;27.70;25.30;;;;;;;;;;4914443;28;20470;-92
2022/07/20 17:45:36;;;;;;;28.70;26.40;;;;;;;;;;4920905;28;20486;-93
2022/07/20 17:48:11;;;;;;;25.27;23.20;;;;;;;;;;4924720;28;21703;-92
2022/07/20 17:50:50;;;;;;;25.77;23.67;;;;;;;;;;4927983;28;20442;-91
2022/07/20 17:53:17;;;;;;;26.13;24.03;;;;;;;;;;4921943;28;20806;-92
2022/07/20 17:55:45;;;;;;;25.73;23.73;;;;;;;;;;4922507;28;20450;-92
2022/07/20 17:58:13;;;;;;;25.53;23.33;;;;;;;;;;4919876;28;20453;-92
2022/07/20 18:00:42;;;;;;;27.27;24.67;;;;;;;;;;4923670;28;20478;-92
2022/07/20 18:03:11;;;;;;;26.33;23.67;;;;;;;;;;4930009;28;20459;-93
2022/07/20 18:05:38;;;;;;;25.17;22.90;;;;;;;;;;4931921;28;20451;-95
2022/07/20 18:08:05;;;;;;;14.13;12.77;;;26.20;99.90;;;;;;4932997;28;20846;-92
2022/07/20 18:10:31;;;;;;;14.03;12.83;;;25.10;99.90;;;;;;4926591;28;20916;-92
2022/07/20 18:12:56;;;;;;;9.07;8.17;;;23.90;99.90;;;;;;4924791;28;20461;-91
2022/07/20 18:15:22;;;;;;;10.00;9.00;;;23.50;99.90;;;;;;4926273;28;20593;-92
2022/07/20 18:17:47;;;;;;;10.80;9.70;;;22.60;99.90;;;;;;4928108;28;20187;-92
2022/07/20 18:20:13;;;;;;;14.97;9.53;;;21.80;99.90;;;;;;4926959;28;20192;-93
2022/07/20 18:22:39;;;;;;;11.40;10.13;;;20.70;99.90;;;;;;4927638;28;20289;-91
2022/07/20 18:25:05;;;;;;;11.73;10.63;;;20.20;99.90;;;;;;4940624;28;20215;-90
2022/07/20 18:27:31;;;;;;;13.27;11.97;;;19.90;99.90;;;;;;4922648;28;20217;-91
2022/07/20 18:29:56;;;;;;;13.63;12.23;;;19.50;99.90;;;;;;4926576;28;21078;-89
2022/07/20 18:32:25;;;;;;;14.10;11.67;;;19.40;99.90;;;;;;4918819;28;20226;-89
2022/07/20 18:34:51;;;;;;;16.87;13.50;;;19.30;99.90;;;;;;4917009;28;20646;-91
2022/07/20 18:37:18;;;;;;;17.97;16.10;;;19.20;99.90;;;;;;4923535;28;21468;-88
2022/07/20 18:39:47;;;;;;;17.87;15.03;;;19.40;99.90;;;;;;4916128;28;20569;-87
2022/07/20 18:42:13;;;;;;;17.27;15.67;;;19.20;99.90;;;;;;4917779;28;20457;-86
2022/07/20 18:44:50;;;;;;;18.67;16.70;;;19.40;99.90;;;;;;4922913;28;20753;-92
2022/07/20 18:47:26;;;;;;;18.10;16.23;;;19.30;99.90;;;;;;4924266;28;20855;-93
2022/07/20 18:49:53;;;;;;;18.27;16.37;;;19.40;99.90;;;;;;4948257;28;20486;-95
2022/07/20 18:52:18;;;;;;;18.63;16.93;;;19.60;99.90;;;;;;4925511;28;20465;-94
2022/07/20 18:54:44;;;;;;;19.07;17.20;;;19.70;99.90;;;;;;4950280;28;20529;-94
2022/07/20 18:57:10;;;;;;;25.53;23.00;;;19.50;99.90;;;;;;4948374;28;20239;-95
2022/07/20 18:59:36;;;;;;;26.87;24.27;;;19.80;99.90;;;;;;4932174;28;20218;-95
2022/07/20 19:02:02;;;;;;;22.93;20.93;;;19.90;99.90;;;;;;4930586;28;20210;-93
2022/07/20 19:04:28;;;;;;;23.13;21.20;;;20.20;99.90;;;;;;4929850;28;20462;-94
2022/07/20 19:06:54;;;;;;;26.47;23.87;;;20.40;99.90;;;;;;4930523;28;20198;-95
2022/07/20 19:09:19;;;;;;;26.20;23.83;;;20.20;99.90;;;;;;4939058;28;21039;-94
2022/07/20 19:11:49;;;;;;;24.30;22.00;;;20.20;99.90;;;;;;4930439;28;20187;-94
2022/07/20 19:14:15;;;;;;;26.37;23.97;;;20.50;99.90;;;;;;4932821;28;20450;-96
2022/07/20 19:16:41;;;;;;;22.37;20.23;;;20.20;99.90;;;;;;4911246;28;20191;-94
2022/07/20 19:19:24;;;;;;;22.97;20.83;;;20.10;99.90;;;;;;4931072;28;20257;-94
2022/07/20 19:21:49;;;;;;;25.27;22.97;;;20.10;99.90;;;;;;4935308;28;20505;-95
2022/07/20 19:24:24;;;;;;;25.27;23.00;;;20.00;99.90;;;;;;4931456;28;20538;-94
2022/07/20 19:26:50;;;;;;;24.23;22.07;;;20.10;99.90;;;;;;4934649;28;20192;-95
2022/07/20 19:29:18;;;;;;;20.70;18.67;;;20.30;99.90;;;;;;4948700;28;20835;-94
2022/07/20 19:31:43;;;;;;;21.10;19.23;;;20.40;99.90;;;;;;4940437;28;20246;-92
2022/07/20 19:34:09;;;;;;;21.43;19.43;;;20.10;99.90;;;;;;4932111;28;20562;-91
2022/07/20 19:36:35;;;;;;;25.70;23.30;;;19.80;99.90;;;;;;4926039;28;21909;-90
2022/07/20 19:39:00;;;;;;;20.30;18.40;;;20.50;99.90;;;;;;4921557;28;20194;-90
2022/07/20 19:41:26;;;;;;;21.43;19.53;;;20.90;99.90;;;;;;4936332;28;20199;-89
2022/07/20 19:43:53;;;;;;;21.17;19.37;;;20.60;99.90;;;;;;4920964;28;20179;-88
2022/07/20 19:46:20;;;;;;;21.30;19.40;;;20.10;99.90;;;;;;4916895;28;20265;-88
2022/07/20 19:49:39;;;;;;;22.67;20.57;;;20.30;99.90;;;;;;4926365;28;20569;-87
2022/07/20 19:52:04;;;;;;;20.60;18.80;;;20.30;99.90;;;;;;4921152;28;20443;-92
2022/07/20 19:54:31;;;;;;;21.43;19.73;;;20.60;99.90;;;;;;4924377;28;20453;-90
2022/07/20 19:56:56;;;;;;;22.50;20.40;;;20.20;99.90;;;;;;4915605;28;20438;-89
2022/07/20 19:59:22;;;;;;;23.27;21.07;;;20.10;99.90;;;;;;4921141;28;20187;-89
2022/07/20 20:01:47;;;;;;;20.23;18.43;;;20.60;99.90;;;;;;4877654;28;1106936;-88
2022/07/20 20:04:13;;;;;;;21.03;19.07;;;20.10;99.90;;;;;;4926782;28;20191;-89
2022/07/20 20:06:54;;;;;;;21.50;19.63;;;20.10;99.90;;;;;;4928542;28;20187;-90
2022/07/20 20:09:21;;;;;;;20.07;18.27;;;20.00;99.90;;;;;;4901312;28;20826;-90
2022/07/20 20:11:48;;;;;;;211.23;194.77;;;19.90;99.90;;;;;;4920252;28;20462;-96
2022/07/20 20:14:27;;;;;;;28.00;25.57;;;19.90;99.90;;;;;;4943404;28;20565;-95
2022/07/20 20:16:55;;;;;;;20.40;18.50;;;19.90;99.90;;;;;;4915609;28;20443;-92
2022/07/20 20:19:26;;;;;;;76.43;69.67;;;19.90;99.90;;;;;;4927665;28;20205;-92
2022/07/20 20:21:52;;;;;;;53.00;48.30;;;19.90;99.90;;;;;;4938121;28;20451;-92
2022/07/20 20:24:19;;;;;;;24.73;22.30;;;19.90;99.90;;;;;;4943923;28;20501;-93
2022/07/20 20:26:45;;;;;;;20.90;19.03;;;19.90;99.90;;;;;;4932009;28;20214;-92
2022/07/20 20:29:10;;;;;;;22.00;19.73;;;19.90;99.90;;;;;;4928661;28;20621;-92
2022/07/20 20:31:44;;;;;;;21.43;19.33;;;20.00;99.90;;;;;;4934878;28;20600;-92
2022/07/20 20:34:14;;;;;;;21.83;19.90;;;20.00;99.90;;;;;;4927031;28;20211;-92
2022/07/20 20:36:40;;;;;;;22.67;20.63;;;20.00;99.90;;;;;;4939751;28;20446;-91
2022/07/20 20:39:05;;;;;;;24.17;22.00;;;20.00;99.90;;;;;;4935861;28;20443;-93
2022/07/20 20:41:47;;;;;;;23.27;21.37;;;20.00;99.90;;;;;;4941156;28;20217;-92
2022/07/20 20:45:02;;;;;;;22.60;20.80;;;20.00;99.90;;;;;;4953852;28;20544;-92
2022/07/20 20:48:13;;;;;;;;;;;;;;;;;;;;;
2022/07/20 20:50:46;;;;;;;23.13;21.20;;;20.20;99.90;;;;;;4922707;28;20593;-93
2022/07/20 20:53:12;;;;;;;23.90;21.70;;;19.90;99.90;;;;;;4930835;28;20462;-91
2022/07/20 20:55:45;;;;;;;23.70;21.40;;;20.30;99.90;;;;;;4920592;28;20709;-92
2022/07/20 21:01:13;;;;;;;23.50;21.27;;;20.00;99.90;;;;;;4921038;28;20493;-94
2022/07/20 21:03:42;;;;;;;23.17;21.13;;;20.20;99.90;;;;;;4934755;28;20501;-92
2022/07/20 21:06:13;;;;;;;24.17;21.87;;;20.70;99.90;;;;;;4932111;28;21023;-91
2022/07/20 21:08:40;;;;;;;20.77;19.07;;;20.20;99.90;;;;;;4932539;28;20569;-93
2022/07/20 21:11:10;;;;;;;20.87;19.10;;;20.20;99.90;;;;;;4932926;28;20797;-92
2022/07/20 21:13:36;;;;;;;21.70;19.63;;;20.80;99.90;;;;;;4944184;28;20431;-92
2022/07/20 21:16:02;;;;;;;21.77;19.70;;;20.90;99.90;;;;;;4941560;28;20462;-92
2022/07/20 21:18:28;;;;;;;23.03;21.10;;;20.50;99.90;;;;;;4933218;28;20266;-91
2022/07/20 21:20:54;;;;;;;21.73;19.93;;;20.50;99.90;;;;;;4926520;28;20203;-92
2022/07/20 21:23:19;;;;;;;22.47;20.50;;;20.70;99.90;;;;;;4930740;28;20188;-92
2022/07/20 21:26:06;;;;;;;23.03;20.93;;;20.60;99.90;;;;;;4931262;28;21330;-93
2022/07/20 21:28:32;;;;;;;21.53;19.67;;;20.30;99.90;;;;;;4930394;28;20875;-93
2022/07/20 21:30:57;;;;;;;23.50;21.23;;;20.50;99.90;;;;;;4953416;28;20478;-90
2022/07/20 21:33:58;;;;;;;23.60;21.50;;;21.00;99.90;;;;;;4951958;28;20507;-95
2022/07/20 21:36:30;;;;;;;24.20;21.90;;;20.40;99.90;;;;;;4941238;28;20187;-94
2022/07/20 21:38:57;;;;;;;23.83;21.77;;;20.30;99.90;;;;;;4938560;28;21137;-91
2022/07/20 21:41:26;;;;;;;25.40;23.03;;;20.60;99.90;;;;;;4938859;28;20458;-94
2022/07/20 21:43:58;;;;;;;23.80;21.60;;;19.90;99.90;;;;;;4937525;28;20440;-92
2022/07/20 21:46:23;;;;;;;24.53;22.23;;;20.80;99.90;;;;;;4932086;28;20470;-93
2022/07/20 21:48:49;;;;;;;23.70;21.60;;;20.60;99.90;;;;;;4931136;28;22424;-91
2022/07/20 21:51:34;;;;;;;22.60;20.63;;;20.50;99.90;;;;;;4933622;28;20278;-93
2022/07/20 21:53:59;;;;;;;23.87;21.77;;;20.10;99.90;;;;;;4951329;28;20210;-92
2022/07/20 21:56:28;;;;;;;22.70;20.70;;;20.90;99.90;;;;;;4930918;28;20458;-93
2022/07/20 21:58:54;;;;;;;23.43;21.30;;;20.20;99.90;;;;;;4935476;28;20228;-93
2022/07/20 22:01:34;;;;;;;22.27;20.27;;;20.70;99.90;;;;;;4929810;28;20459;-94
2022/07/20 22:04:45;;;;;;;23.67;21.67;;;20.70;99.90;;;;;;4931500;28;20206;-93
2022/07/20 22:14:16;;;;;;;23.30;21.20;;;20.60;99.90;;;;;;4860157;29;20500;-94
